sensor_id;sensor_type;location;lat;lon;timestamp;P1;durP1;ratioP1;P2;durP2;ratioP2
15677;SDS011;7939;50.814;6.368;2022-12-15T00:00:44;18.50;;;10.47;;
15677;SDS011;7939;50.814;6.368;2022-12-15T00:03:28;19.37;;;10.70;;
15677;SDS011;7939;50.814;6.368;2022-12-15T00:06:13;17.70;;;10.93;;
15677;SDS011;7939;50.814;6.368;2022-12-15T00:08:58;18.27;;;10.80;;
15677;SDS011;7939;50.814;6.368;2022-12-15T00:11:43;16.30;;;10.40;;
15677;SDS011;7939;50.814;6.368;2022-12-15T00:14:27;17.33;;;10.30;;
15677;SDS011;7939;50.814;6.368;2022-12-15T00:17:11;16.50;;;9.87;;
15677;SDS011;7939;50.814;6.368;2022-12-15T00:19:55;20.47;;;10.60;;
15677;SDS011;7939;50.814;6.368;2022-12-15T00:22:39;18.73;;;9.83;;
15677;SDS011;7939;50.814;6.368;2022-12-15T00:25:25;17.90;;;11.63;;
15677;SDS011;7939;50.814;6.368;2022-12-15T00:28:09;16.70;;;11.37;;
15677;SDS011;7939;50.814;6.368;2022-12-15T00:30:53;17.77;;;10.87;;
15677;SDS011;7939;50.814;6.368;2022-12-15T00:33:37;17.63;;;11.10;;
15677;SDS011;7939;50.814;6.368;2022-12-15T00:36:21;22.30;;;9.90;;
15677;SDS011;7939;50.814;6.368;2022-12-15T00:39:05;20.73;;;11.27;;
15677;SDS011;7939;50.814;6.368;2022-12-15T00:41:33;17.90;;;11.07;;
15677;SDS011;7939;50.814;6.368;2022-12-15T00:44:00;16.30;;;11.00;;
15677;SDS011;7939;50.814;6.368;2022-12-15T00:46:26;17.83;;;10.40;;
15677;SDS011;7939;50.814;6.368;2022-12-15T00:49:10;15.73;;;11.23;;
15677;SDS011;7939;50.814;6.368;2022-12-15T00:51:51;17.53;;;10.83;;
15677;SDS011;7939;50.814;6.368;2022-12-15T00:54:35;15.83;;;10.70;;
15677;SDS011;7939;50.814;6.368;2022-12-15T00:57:20;21.43;;;11.50;;
15677;SDS011;7939;50.814;6.368;2022-12-15T01:00:05;22.63;;;11.67;;
15677;SDS011;7939;50.814;6.368;2022-12-15T01:02:50;19.37;;;11.77;;
15677;SDS011;7939;50.814;6.368;2022-12-15T01:05:34;20.17;;;11.33;;
15677;SDS011;7939;50.814;6.368;2022-12-15T01:08:18;19.63;;;11.80;;
15677;SDS011;7939;50.814;6.368;2022-12-15T01:11:02;18.30;;;11.90;;
15677;SDS011;7939;50.814;6.368;2022-12-15T01:13:48;18.93;;;11.67;;
15677;SDS011;7939;50.814;6.368;2022-12-15T01:16:32;18.53;;;11.27;;
15677;SDS011;7939;50.814;6.368;2022-12-15T01:19:16;20.83;;;11.50;;
15677;SDS011;7939;50.814;6.368;2022-12-15T01:22:01;22.20;;;10.57;;
15677;SDS011;7939;50.814;6.368;2022-12-15T01:24:27;18.03;;;10.43;;
15677;SDS011;7939;50.814;6.368;2022-12-15T01:26:54;23.73;;;10.97;;
15677;SDS011;7939;50.814;6.368;2022-12-15T01:29:23;20.63;;;11.37;;
15677;SDS011;7939;50.814;6.368;2022-12-15T01:31:50;16.73;;;10.23;;
15677;SDS011;7939;50.814;6.368;2022-12-15T01:34:17;20.00;;;10.77;;
15677;SDS011;7939;50.814;6.368;2022-12-15T01:36:46;19.47;;;11.43;;
15677;SDS011;7939;50.814;6.368;2022-12-15T01:39:13;20.63;;;10.73;;
15677;SDS011;7939;50.814;6.368;2022-12-15T01:41:40;15.33;;;9.70;;
15677;SDS011;7939;50.814;6.368;2022-12-15T01:44:16;17.67;;;11.00;;
15677;SDS011;7939;50.814;6.368;2022-12-15T01:46:45;20.10;;;10.67;;
15677;SDS011;7939;50.814;6.368;2022-12-15T01:49:13;18.87;;;10.40;;
15677;SDS011;7939;50.814;6.368;2022-12-15T01:51:43;19.10;;;10.77;;
15677;SDS011;7939;50.814;6.368;2022-12-15T01:54:14;18.07;;;10.93;;
15677;SDS011;7939;50.814;6.368;2022-12-15T01:56:45;18.63;;;10.30;;
15677;SDS011;7939;50.814;6.368;2022-12-15T01:59:16;20.13;;;10.40;;
15677;SDS011;7939;50.814;6.368;2022-12-15T02:01:47;18.40;;;11.43;;
15677;SDS011;7939;50.814;6.368;2022-12-15T02:04:14;23.10;;;10.60;;
15677;SDS011;7939;50.814;6.368;2022-12-15T02:06:43;19.97;;;10.73;;
15677;SDS011;7939;50.814;6.368;2022-12-15T02:09:09;17.87;;;10.67;;
15677;SDS011;7939;50.814;6.368;2022-12-15T02:14:37;17.70;;;10.10;;
15677;SDS011;7939;50.814;6.368;2022-12-15T02:17:15;18.17;;;9.90;;
15677;SDS011;7939;50.814;6.368;2022-12-15T02:19:55;16.80;;;9.93;;
15677;SDS011;7939;50.814;6.368;2022-12-15T02:23:02;24.57;;;10.40;;
15677;SDS011;7939;50.814;6.368;2022-12-15T02:26:01;18.53;;;10.43;;
15677;SDS011;7939;50.814;6.368;2022-12-15T02:28:47;17.70;;;11.27;;
15677;SDS011;7939;50.814;6.368;2022-12-15T02:31:26;18.43;;;10.73;;
15677;SDS011;7939;50.814;6.368;2022-12-15T02:34:16;18.37;;;10.90;;
15677;SDS011;7939;50.814;6.368;2022-12-15T02:36:48;21.10;;;10.70;;
15677;SDS011;7939;50.814;6.368;2022-12-15T02:39:19;18.30;;;11.50;;
15677;SDS011;7939;50.814;6.368;2022-12-15T02:41:46;17.90;;;11.60;;
15677;SDS011;7939;50.814;6.368;2022-12-15T02:44:14;19.23;;;10.93;;
15677;SDS011;7939;50.814;6.368;2022-12-15T02:46:52;17.10;;;9.93;;
15677;SDS011;7939;50.814;6.368;2022-12-15T02:49:31;20.50;;;12.13;;
15677;SDS011;7939;50.814;6.368;2022-12-15T02:52:09;16.87;;;10.90;;
15677;SDS011;7939;50.814;6.368;2022-12-15T02:55:02;21.00;;;12.10;;
15677;SDS011;7939;50.814;6.368;2022-12-15T02:57:38;20.43;;;10.70;;
15677;SDS011;7939;50.814;6.368;2022-12-15T03:00:11;18.70;;;11.67;;
15677;SDS011;7939;50.814;6.368;2022-12-15T03:02:43;17.73;;;11.27;;
15677;SDS011;7939;50.814;6.368;2022-12-15T03:05:13;23.17;;;12.43;;
15677;SDS011;7939;50.814;6.368;2022-12-15T03:07:41;19.13;;;11.27;;
15677;SDS011;7939;50.814;6.368;2022-12-15T03:10:09;20.70;;;11.63;;
15677;SDS011;7939;50.814;6.368;2022-12-15T03:12:38;22.87;;;11.47;;
15677;SDS011;7939;50.814;6.368;2022-12-15T03:15:05;19.10;;;11.67;;
15677;SDS011;7939;50.814;6.368;2022-12-15T03:17:32;19.67;;;11.27;;
15677;SDS011;7939;50.814;6.368;2022-12-15T03:20:00;17.63;;;11.00;;
15677;SDS011;7939;50.814;6.368;2022-12-15T03:22:27;15.67;;;10.90;;
15677;SDS011;7939;50.814;6.368;2022-12-15T03:24:53;20.20;;;11.87;;
15677;SDS011;7939;50.814;6.368;2022-12-15T03:27:20;17.37;;;11.57;;
15677;SDS011;7939;50.814;6.368;2022-12-15T03:29:47;21.50;;;11.90;;
15677;SDS011;7939;50.814;6.368;2022-12-15T03:32:13;20.93;;;12.53;;
15677;SDS011;7939;50.814;6.368;2022-12-15T03:34:40;19.67;;;11.17;;
15677;SDS011;7939;50.814;6.368;2022-12-15T03:37:08;16.63;;;11.40;;
15677;SDS011;7939;50.814;6.368;2022-12-15T03:39:34;20.73;;;11.50;;
15677;SDS011;7939;50.814;6.368;2022-12-15T03:42:01;22.20;;;11.97;;
15677;SDS011;7939;50.814;6.368;2022-12-15T03:44:28;19.37;;;11.47;;
15677;SDS011;7939;50.814;6.368;2022-12-15T03:46:54;18.67;;;11.57;;
15677;SDS011;7939;50.814;6.368;2022-12-15T03:49:21;19.67;;;12.47;;
15677;SDS011;7939;50.814;6.368;2022-12-15T03:51:47;19.87;;;11.27;;
15677;SDS011;7939;50.814;6.368;2022-12-15T03:54:15;19.23;;;11.33;;
15677;SDS011;7939;50.814;6.368;2022-12-15T03:56:42;20.00;;;11.23;;
15677;SDS011;7939;50.814;6.368;2022-12-15T03:59:08;17.67;;;10.80;;
15677;SDS011;7939;50.814;6.368;2022-12-15T04:01:35;19.30;;;11.03;;
15677;SDS011;7939;50.814;6.368;2022-12-15T04:04:02;19.90;;;12.00;;
15677;SDS011;7939;50.814;6.368;2022-12-15T04:06:29;19.80;;;11.13;;
15677;SDS011;7939;50.814;6.368;2022-12-15T04:08:57;16.60;;;10.93;;
15677;SDS011;7939;50.814;6.368;2022-12-15T04:11:25;19.57;;;10.83;;
15677;SDS011;7939;50.814;6.368;2022-12-15T04:13:51;20.33;;;11.47;;
15677;SDS011;7939;50.814;6.368;2022-12-15T04:16:18;19.40;;;11.83;;
15677;SDS011;7939;50.814;6.368;2022-12-15T04:18:45;20.90;;;11.53;;
15677;SDS011;7939;50.814;6.368;2022-12-15T04:21:31;21.13;;;12.13;;
15677;SDS011;7939;50.814;6.368;2022-12-15T04:23:57;19.30;;;11.30;;
15677;SDS011;7939;50.814;6.368;2022-12-15T04:26:42;19.17;;;10.67;;
15677;SDS011;7939;50.814;6.368;2022-12-15T04:29:27;18.97;;;11.47;;
15677;SDS011;7939;50.814;6.368;2022-12-15T04:32:11;18.87;;;11.47;;
15677;SDS011;7939;50.814;6.368;2022-12-15T04:34:55;18.37;;;10.93;;
15677;SDS011;7939;50.814;6.368;2022-12-15T04:37:39;20.73;;;11.23;;
15677;SDS011;7939;50.814;6.368;2022-12-15T04:40:23;16.53;;;10.13;;
15677;SDS011;7939;50.814;6.368;2022-12-15T04:43:09;18.50;;;10.10;;
15677;SDS011;7939;50.814;6.368;2022-12-15T04:45:53;16.47;;;10.93;;
15677;SDS011;7939;50.814;6.368;2022-12-15T04:48:37;20.03;;;10.83;;
15677;SDS011;7939;50.814;6.368;2022-12-15T04:51:21;21.13;;;10.83;;
15677;SDS011;7939;50.814;6.368;2022-12-15T04:54:06;16.83;;;10.63;;
15677;SDS011;7939;50.814;6.368;2022-12-15T04:56:50;18.37;;;11.23;;
15677;SDS011;7939;50.814;6.368;2022-12-15T04:59:35;17.97;;;9.87;;
15677;SDS011;7939;50.814;6.368;2022-12-15T05:02:20;17.20;;;10.33;;
15677;SDS011;7939;50.814;6.368;2022-12-15T05:05:04;16.97;;;10.20;;
15677;SDS011;7939;50.814;6.368;2022-12-15T05:07:48;18.87;;;10.33;;
15677;SDS011;7939;50.814;6.368;2022-12-15T05:10:33;21.07;;;10.27;;
15677;SDS011;7939;50.814;6.368;2022-12-15T05:13:17;17.27;;;10.87;;
15677;SDS011;7939;50.814;6.368;2022-12-15T05:16:03;19.03;;;10.63;;
15677;SDS011;7939;50.814;6.368;2022-12-15T05:18:47;17.93;;;10.03;;
15677;SDS011;7939;50.814;6.368;2022-12-15T05:21:31;16.20;;;9.83;;
15677;SDS011;7939;50.814;6.368;2022-12-15T05:24:16;13.80;;;9.07;;
15677;SDS011;7939;50.814;6.368;2022-12-15T05:27:00;16.53;;;9.60;;
15677;SDS011;7939;50.814;6.368;2022-12-15T05:29:44;14.67;;;8.83;;
15677;SDS011;7939;50.814;6.368;2022-12-15T05:32:31;13.80;;;8.90;;
15677;SDS011;7939;50.814;6.368;2022-12-15T05:34:57;15.93;;;9.33;;
15677;SDS011;7939;50.814;6.368;2022-12-15T05:37:25;17.17;;;10.27;;
15677;SDS011;7939;50.814;6.368;2022-12-15T05:39:52;17.97;;;10.00;;
15677;SDS011;7939;50.814;6.368;2022-12-15T05:42:18;17.83;;;10.67;;
15677;SDS011;7939;50.814;6.368;2022-12-15T05:44:45;19.73;;;9.80;;
15677;SDS011;7939;50.814;6.368;2022-12-15T05:47:11;15.90;;;9.37;;
15677;SDS011;7939;50.814;6.368;2022-12-15T05:49:39;15.23;;;9.50;;
15677;SDS011;7939;50.814;6.368;2022-12-15T05:52:06;17.30;;;9.53;;
15677;SDS011;7939;50.814;6.368;2022-12-15T05:54:33;14.90;;;9.40;;
15677;SDS011;7939;50.814;6.368;2022-12-15T05:56:59;16.57;;;10.07;;
15677;SDS011;7939;50.814;6.368;2022-12-15T05:59:26;16.80;;;9.80;;
15677;SDS011;7939;50.814;6.368;2022-12-15T06:01:52;16.17;;;9.63;;
15677;SDS011;7939;50.814;6.368;2022-12-15T06:04:19;15.33;;;9.80;;
15677;SDS011;7939;50.814;6.368;2022-12-15T06:06:47;14.03;;;8.80;;
15677;SDS011;7939;50.814;6.368;2022-12-15T06:09:13;14.87;;;9.10;;
15677;SDS011;7939;50.814;6.368;2022-12-15T06:11:40;13.93;;;8.63;;
15677;SDS011;7939;50.814;6.368;2022-12-15T06:14:07;15.03;;;8.90;;
15677;SDS011;7939;50.814;6.368;2022-12-15T06:16:34;16.53;;;9.13;;
15677;SDS011;7939;50.814;6.368;2022-12-15T06:19:02;16.77;;;9.30;;
15677;SDS011;7939;50.814;6.368;2022-12-15T06:21:29;14.87;;;8.67;;
15677;SDS011;7939;50.814;6.368;2022-12-15T06:24:00;13.53;;;8.03;;
15677;SDS011;7939;50.814;6.368;2022-12-15T06:26:28;15.40;;;8.30;;
15677;SDS011;7939;50.814;6.368;2022-12-15T06:28:57;11.67;;;7.93;;
15677;SDS011;7939;50.814;6.368;2022-12-15T06:31:26;12.93;;;8.97;;
15677;SDS011;7939;50.814;6.368;2022-12-15T06:33:54;16.00;;;7.70;;
15677;SDS011;7939;50.814;6.368;2022-12-15T06:36:21;15.87;;;8.10;;
15677;SDS011;7939;50.814;6.368;2022-12-15T06:38:48;13.87;;;7.73;;
15677;SDS011;7939;50.814;6.368;2022-12-15T06:41:18;16.50;;;8.80;;
15677;SDS011;7939;50.814;6.368;2022-12-15T06:43:47;12.57;;;7.83;;
15677;SDS011;7939;50.814;6.368;2022-12-15T06:46:14;16.10;;;8.67;;
15677;SDS011;7939;50.814;6.368;2022-12-15T06:48:41;17.23;;;8.63;;
15677;SDS011;7939;50.814;6.368;2022-12-15T06:51:09;11.50;;;6.90;;
15677;SDS011;7939;50.814;6.368;2022-12-15T06:53:37;14.17;;;8.70;;
15677;SDS011;7939;50.814;6.368;2022-12-15T06:56:06;16.27;;;8.23;;
15677;SDS011;7939;50.814;6.368;2022-12-15T06:58:38;19.70;;;8.57;;
15677;SDS011;7939;50.814;6.368;2022-12-15T07:01:05;13.97;;;8.20;;
15677;SDS011;7939;50.814;6.368;2022-12-15T07:03:33;14.97;;;8.43;;
15677;SDS011;7939;50.814;6.368;2022-12-15T07:06:00;13.67;;;8.13;;
15677;SDS011;7939;50.814;6.368;2022-12-15T07:08:28;13.77;;;8.67;;
15677;SDS011;7939;50.814;6.368;2022-12-15T07:10:55;11.73;;;7.00;;
15677;SDS011;7939;50.814;6.368;2022-12-15T07:13:22;15.60;;;8.30;;
15677;SDS011;7939;50.814;6.368;2022-12-15T07:15:50;11.97;;;7.77;;
15677;SDS011;7939;50.814;6.368;2022-12-15T07:18:17;13.87;;;8.93;;
15677;SDS011;7939;50.814;6.368;2022-12-15T07:20:44;16.17;;;8.37;;
15677;SDS011;7939;50.814;6.368;2022-12-15T07:23:10;12.93;;;8.13;;
15677;SDS011;7939;50.814;6.368;2022-12-15T07:25:37;14.13;;;8.93;;
15677;SDS011;7939;50.814;6.368;2022-12-15T07:28:05;11.70;;;7.63;;
15677;SDS011;7939;50.814;6.368;2022-12-15T07:30:32;14.73;;;8.83;;
15677;SDS011;7939;50.814;6.368;2022-12-15T07:33:01;12.80;;;7.77;;
15677;SDS011;7939;50.814;6.368;2022-12-15T07:35:27;14.90;;;8.70;;
15677;SDS011;7939;50.814;6.368;2022-12-15T07:37:54;14.07;;;7.83;;
15677;SDS011;7939;50.814;6.368;2022-12-15T07:40:21;13.23;;;8.20;;
15677;SDS011;7939;50.814;6.368;2022-12-15T07:42:47;18.03;;;9.57;;
15677;SDS011;7939;50.814;6.368;2022-12-15T07:45:14;14.47;;;8.40;;
15677;SDS011;7939;50.814;6.368;2022-12-15T07:47:40;15.27;;;8.67;;
15677;SDS011;7939;50.814;6.368;2022-12-15T07:50:09;14.33;;;8.90;;
15677;SDS011;7939;50.814;6.368;2022-12-15T07:52:35;12.53;;;8.60;;
15677;SDS011;7939;50.814;6.368;2022-12-15T07:55:02;15.97;;;9.17;;
15677;SDS011;7939;50.814;6.368;2022-12-15T07:57:29;15.90;;;8.77;;
15677;SDS011;7939;50.814;6.368;2022-12-15T07:59:56;14.93;;;9.00;;
15677;SDS011;7939;50.814;6.368;2022-12-15T08:02:23;16.33;;;8.83;;
15677;SDS011;7939;50.814;6.368;2022-12-15T08:04:50;12.23;;;7.83;;
15677;SDS011;7939;50.814;6.368;2022-12-15T08:07:18;15.23;;;9.20;;
15677;SDS011;7939;50.814;6.368;2022-12-15T08:09:44;16.20;;;8.67;;
15677;SDS011;7939;50.814;6.368;2022-12-15T08:12:12;13.67;;;8.93;;
15677;SDS011;7939;50.814;6.368;2022-12-15T08:14:38;14.07;;;8.87;;
15677;SDS011;7939;50.814;6.368;2022-12-15T08:17:05;15.00;;;8.33;;
15677;SDS011;7939;50.814;6.368;2022-12-15T08:19:31;14.27;;;8.80;;
15677;SDS011;7939;50.814;6.368;2022-12-15T08:21:58;13.73;;;9.17;;
15677;SDS011;7939;50.814;6.368;2022-12-15T08:24:26;14.33;;;8.90;;
15677;SDS011;7939;50.814;6.368;2022-12-15T08:26:52;15.47;;;9.77;;
15677;SDS011;7939;50.814;6.368;2022-12-15T08:29:19;14.07;;;8.17;;
15677;SDS011;7939;50.814;6.368;2022-12-15T08:31:46;13.47;;;8.27;;
15677;SDS011;7939;50.814;6.368;2022-12-15T08:34:13;14.50;;;8.63;;
15677;SDS011;7939;50.814;6.368;2022-12-15T08:36:39;12.63;;;8.80;;
15677;SDS011;7939;50.814;6.368;2022-12-15T08:39:06;15.00;;;9.27;;
15677;SDS011;7939;50.814;6.368;2022-12-15T08:41:34;16.67;;;9.37;;
15677;SDS011;7939;50.814;6.368;2022-12-15T08:44:00;14.07;;;9.87;;
15677;SDS011;7939;50.814;6.368;2022-12-15T08:46:28;13.40;;;8.23;;
15677;SDS011;7939;50.814;6.368;2022-12-15T08:48:55;14.30;;;8.30;;
15677;SDS011;7939;50.814;6.368;2022-12-15T08:51:23;17.07;;;9.50;;
15677;SDS011;7939;50.814;6.368;2022-12-15T08:53:52;14.53;;;9.43;;
15677;SDS011;7939;50.814;6.368;2022-12-15T08:56:20;15.33;;;9.07;;
15677;SDS011;7939;50.814;6.368;2022-12-15T08:58:49;13.73;;;9.40;;
15677;SDS011;7939;50.814;6.368;2022-12-15T09:01:21;19.47;;;9.63;;
15677;SDS011;7939;50.814;6.368;2022-12-15T09:03:48;16.17;;;10.27;;
15677;SDS011;7939;50.814;6.368;2022-12-15T09:06:16;17.97;;;10.07;;
15677;SDS011;7939;50.814;6.368;2022-12-15T09:08:45;16.53;;;9.97;;
15677;SDS011;7939;50.814;6.368;2022-12-15T09:11:11;14.80;;;9.20;;
15677;SDS011;7939;50.814;6.368;2022-12-15T09:13:38;15.90;;;9.13;;
15677;SDS011;7939;50.814;6.368;2022-12-15T09:16:07;15.43;;;9.67;;
15677;SDS011;7939;50.814;6.368;2022-12-15T09:18:39;20.27;;;11.20;;
15677;SDS011;7939;50.814;6.368;2022-12-15T09:21:07;18.13;;;10.00;;
15677;SDS011;7939;50.814;6.368;2022-12-15T09:23:36;17.23;;;11.03;;
15677;SDS011;7939;50.814;6.368;2022-12-15T09:26:03;18.53;;;10.67;;
15677;SDS011;7939;50.814;6.368;2022-12-15T09:28:31;16.90;;;10.17;;
15677;SDS011;7939;50.814;6.368;2022-12-15T09:31:00;18.03;;;11.03;;
15677;SDS011;7939;50.814;6.368;2022-12-15T09:33:29;18.07;;;10.23;;
15677;SDS011;7939;50.814;6.368;2022-12-15T09:35:56;14.70;;;9.47;;
15677;SDS011;7939;50.814;6.368;2022-12-15T09:38:23;17.77;;;10.60;;
15677;SDS011;7939;50.814;6.368;2022-12-15T09:40:50;18.83;;;10.97;;
15677;SDS011;7939;50.814;6.368;2022-12-15T09:43:18;18.50;;;10.93;;
15677;SDS011;7939;50.814;6.368;2022-12-15T09:45:48;17.53;;;10.50;;
15677;SDS011;7939;50.814;6.368;2022-12-15T09:48:18;18.50;;;11.40;;
15677;SDS011;7939;50.814;6.368;2022-12-15T09:50:50;17.57;;;11.00;;
15677;SDS011;7939;50.814;6.368;2022-12-15T09:53:19;18.20;;;11.33;;
15677;SDS011;7939;50.814;6.368;2022-12-15T09:55:51;19.53;;;11.37;;
15677;SDS011;7939;50.814;6.368;2022-12-15T09:58:26;18.97;;;11.70;;
15677;SDS011;7939;50.814;6.368;2022-12-15T10:01:06;20.93;;;12.83;;
15677;SDS011;7939;50.814;6.368;2022-12-15T10:03:39;21.50;;;12.53;;
15677;SDS011;7939;50.814;6.368;2022-12-15T10:06:16;22.03;;;12.30;;
15677;SDS011;7939;50.814;6.368;2022-12-15T10:08:46;22.33;;;13.67;;
15677;SDS011;7939;50.814;6.368;2022-12-15T10:11:16;21.80;;;13.80;;
15677;SDS011;7939;50.814;6.368;2022-12-15T10:13:49;25.23;;;13.77;;
15677;SDS011;7939;50.814;6.368;2022-12-15T10:16:21;19.80;;;13.03;;
15677;SDS011;7939;50.814;6.368;2022-12-15T10:18:58;24.70;;;14.90;;
15677;SDS011;7939;50.814;6.368;2022-12-15T10:21:33;27.13;;;15.20;;
15677;SDS011;7939;50.814;6.368;2022-12-15T10:24:06;20.30;;;13.23;;
15677;SDS011;7939;50.814;6.368;2022-12-15T10:26:39;20.83;;;12.77;;
15677;SDS011;7939;50.814;6.368;2022-12-15T10:29:21;20.30;;;12.27;;
15677;SDS011;7939;50.814;6.368;2022-12-15T10:31:53;17.97;;;10.77;;
15677;SDS011;7939;50.814;6.368;2022-12-15T10:34:27;16.30;;;10.13;;
15677;SDS011;7939;50.814;6.368;2022-12-15T10:36:56;15.03;;;10.90;;
15677;SDS011;7939;50.814;6.368;2022-12-15T10:39:34;17.70;;;10.07;;
15677;SDS011;7939;50.814;6.368;2022-12-15T10:42:16;16.93;;;10.30;;
15677;SDS011;7939;50.814;6.368;2022-12-15T10:44:46;19.00;;;10.73;;
15677;SDS011;7939;50.814;6.368;2022-12-15T10:47:18;20.30;;;11.33;;
15677;SDS011;7939;50.814;6.368;2022-12-15T10:49:47;22.10;;;12.03;;
15677;SDS011;7939;50.814;6.368;2022-12-15T10:52:17;20.20;;;11.00;;
15677;SDS011;7939;50.814;6.368;2022-12-15T10:54:48;20.70;;;11.07;;
15677;SDS011;7939;50.814;6.368;2022-12-15T10:57:18;20.53;;;11.67;;
15677;SDS011;7939;50.814;6.368;2022-12-15T10:59:46;21.07;;;12.40;;
15677;SDS011;7939;50.814;6.368;2022-12-15T11:05:01;18.43;;;12.13;;
15677;SDS011;7939;50.814;6.368;2022-12-15T11:07:33;17.30;;;11.47;;
15677;SDS011;7939;50.814;6.368;2022-12-15T11:10:07;18.10;;;11.27;;
15677;SDS011;7939;50.814;6.368;2022-12-15T11:12:40;20.77;;;11.20;;
15677;SDS011;7939;50.814;6.368;2022-12-15T11:15:37;17.80;;;11.90;;
15677;SDS011;7939;50.814;6.368;2022-12-15T11:18:07;21.33;;;12.60;;
15677;SDS011;7939;50.814;6.368;2022-12-15T11:20:41;22.50;;;11.90;;
15677;SDS011;7939;50.814;6.368;2022-12-15T11:23:15;20.27;;;10.67;;
15677;SDS011;7939;50.814;6.368;2022-12-15T11:25:48;17.37;;;10.27;;
15677;SDS011;7939;50.814;6.368;2022-12-15T11:28:20;18.37;;;10.10;;
15677;SDS011;7939;50.814;6.368;2022-12-15T11:30:51;19.23;;;10.50;;
15677;SDS011;7939;50.814;6.368;2022-12-15T11:33:24;16.17;;;10.77;;
15677;SDS011;7939;50.814;6.368;2022-12-15T11:35:54;14.47;;;10.40;;
15677;SDS011;7939;50.814;6.368;2022-12-15T11:38:36;22.57;;;11.50;;
15677;SDS011;7939;50.814;6.368;2022-12-15T11:41:10;17.53;;;11.00;;
15677;SDS011;7939;50.814;6.368;2022-12-15T11:43:48;18.63;;;11.10;;
15677;SDS011;7939;50.814;6.368;2022-12-15T11:46:27;21.13;;;10.00;;
15677;SDS011;7939;50.814;6.368;2022-12-15T11:49:24;16.53;;;10.67;;
15677;SDS011;7939;50.814;6.368;2022-12-15T11:52:01;15.57;;;10.23;;
15677;SDS011;7939;50.814;6.368;2022-12-15T11:54:33;21.27;;;12.17;;
15677;SDS011;7939;50.814;6.368;2022-12-15T11:57:13;20.50;;;11.00;;
15677;SDS011;7939;50.814;6.368;2022-12-15T11:59:58;20.40;;;10.33;;
15677;SDS011;7939;50.814;6.368;2022-12-15T12:02:36;22.47;;;11.73;;
15677;SDS011;7939;50.814;6.368;2022-12-15T12:08:05;18.23;;;11.70;;
15677;SDS011;7939;50.814;6.368;2022-12-15T12:10:45;18.40;;;9.80;;
15677;SDS011;7939;50.814;6.368;2022-12-15T12:13:21;20.60;;;11.53;;
15677;SDS011;7939;50.814;6.368;2022-12-15T12:15:56;18.17;;;11.20;;
15677;SDS011;7939;50.814;6.368;2022-12-15T12:18:29;17.57;;;11.43;;
15677;SDS011;7939;50.814;6.368;2022-12-15T12:21:01;22.87;;;12.60;;
15677;SDS011;7939;50.814;6.368;2022-12-15T12:23:33;18.40;;;11.43;;
15677;SDS011;7939;50.814;6.368;2022-12-15T12:26:09;21.40;;;12.63;;
15677;SDS011;7939;50.814;6.368;2022-12-15T12:28:42;17.80;;;12.63;;
15677;SDS011;7939;50.814;6.368;2022-12-15T12:31:16;23.43;;;12.70;;
15677;SDS011;7939;50.814;6.368;2022-12-15T12:33:48;19.27;;;10.93;;
15677;SDS011;7939;50.814;6.368;2022-12-15T12:36:20;21.33;;;12.60;;
15677;SDS011;7939;50.814;6.368;2022-12-15T12:38:47;22.90;;;13.40;;
15677;SDS011;7939;50.814;6.368;2022-12-15T12:41:20;24.73;;;12.90;;
15677;SDS011;7939;50.814;6.368;2022-12-15T12:43:57;19.87;;;12.57;;
15677;SDS011;7939;50.814;6.368;2022-12-15T12:46:26;21.37;;;13.77;;
15677;SDS011;7939;50.814;6.368;2022-12-15T12:48:57;30.17;;;14.40;;
15677;SDS011;7939;50.814;6.368;2022-12-15T12:51:28;27.47;;;13.87;;
15677;SDS011;7939;50.814;6.368;2022-12-15T12:53:57;27.73;;;17.47;;
15677;SDS011;7939;50.814;6.368;2022-12-15T12:56:33;28.43;;;14.87;;
15677;SDS011;7939;50.814;6.368;2022-12-15T12:59:03;23.07;;;14.83;;
15677;SDS011;7939;50.814;6.368;2022-12-15T13:01:52;26.10;;;14.73;;
15677;SDS011;7939;50.814;6.368;2022-12-15T13:07:06;20.07;;;13.30;;
15677;SDS011;7939;50.814;6.368;2022-12-15T13:10:00;20.43;;;13.30;;
15677;SDS011;7939;50.814;6.368;2022-12-15T13:12:44;21.73;;;13.50;;
15677;SDS011;7939;50.814;6.368;2022-12-15T13:15:12;25.17;;;15.20;;
15677;SDS011;7939;50.814;6.368;2022-12-15T13:17:50;21.70;;;11.90;;
15677;SDS011;7939;50.814;6.368;2022-12-15T13:20:22;22.73;;;14.20;;
15677;SDS011;7939;50.814;6.368;2022-12-15T13:22:51;20.77;;;12.83;;
15677;SDS011;7939;50.814;6.368;2022-12-15T13:25:26;27.87;;;15.00;;
15677;SDS011;7939;50.814;6.368;2022-12-15T13:28:00;22.27;;;14.17;;
15677;SDS011;7939;50.814;6.368;2022-12-15T13:33:45;21.70;;;12.97;;
15677;SDS011;7939;50.814;6.368;2022-12-15T13:42:30;27.63;;;15.90;;
15677;SDS011;7939;50.814;6.368;2022-12-15T13:47:58;26.20;;;14.93;;
15677;SDS011;7939;50.814;6.368;2022-12-15T13:50:29;27.93;;;16.17;;
15677;SDS011;7939;50.814;6.368;2022-12-15T13:52:59;24.87;;;16.03;;
15677;SDS011;7939;50.814;6.368;2022-12-15T13:55:33;28.20;;;17.50;;
15677;SDS011;7939;50.814;6.368;2022-12-15T13:58:02;28.70;;;16.37;;
15677;SDS011;7939;50.814;6.368;2022-12-15T14:00:32;25.60;;;14.97;;
15677;SDS011;7939;50.814;6.368;2022-12-15T14:03:04;31.17;;;16.63;;
15677;SDS011;7939;50.814;6.368;2022-12-15T14:05:33;27.60;;;16.87;;
15677;SDS011;7939;50.814;6.368;2022-12-15T14:08:00;28.70;;;16.77;;
15677;SDS011;7939;50.814;6.368;2022-12-15T14:10:32;36.00;;;17.13;;
15677;SDS011;7939;50.814;6.368;2022-12-15T14:13:07;29.33;;;17.33;;
15677;SDS011;7939;50.814;6.368;2022-12-15T14:15:39;26.90;;;16.20;;
15677;SDS011;7939;50.814;6.368;2022-12-15T14:18:17;28.63;;;18.10;;
15677;SDS011;7939;50.814;6.368;2022-12-15T14:20:58;37.63;;;19.10;;
15677;SDS011;7939;50.814;6.368;2022-12-15T14:23:27;39.77;;;19.87;;
15677;SDS011;7939;50.814;6.368;2022-12-15T14:25:55;34.13;;;20.40;;
15677;SDS011;7939;50.814;6.368;2022-12-15T14:28:27;37.63;;;20.17;;
15677;SDS011;7939;50.814;6.368;2022-12-15T14:30:56;36.20;;;21.27;;
15677;SDS011;7939;50.814;6.368;2022-12-15T14:33:25;35.53;;;20.20;;
15677;SDS011;7939;50.814;6.368;2022-12-15T14:35:53;41.03;;;21.53;;
15677;SDS011;7939;50.814;6.368;2022-12-15T14:38:24;28.70;;;16.77;;
15677;SDS011;7939;50.814;6.368;2022-12-15T14:40:56;34.27;;;21.07;;
15677;SDS011;7939;50.814;6.368;2022-12-15T14:43:27;34.37;;;18.73;;
15677;SDS011;7939;50.814;6.368;2022-12-15T14:46:04;32.97;;;19.10;;
15677;SDS011;7939;50.814;6.368;2022-12-15T14:48:33;30.77;;;16.97;;
15677;SDS011;7939;50.814;6.368;2022-12-15T14:51:03;31.20;;;17.10;;
15677;SDS011;7939;50.814;6.368;2022-12-15T14:53:32;30.17;;;16.93;;
15677;SDS011;7939;50.814;6.368;2022-12-15T14:56:11;35.30;;;18.30;;
15677;SDS011;7939;50.814;6.368;2022-12-15T14:58:51;26.30;;;17.10;;
15677;SDS011;7939;50.814;6.368;2022-12-15T15:01:22;31.73;;;17.30;;
15677;SDS011;7939;50.814;6.368;2022-12-15T15:03:58;38.30;;;19.47;;
15677;SDS011;7939;50.814;6.368;2022-12-15T15:06:30;30.87;;;17.97;;
15677;SDS011;7939;50.814;6.368;2022-12-15T15:09:10;34.43;;;19.20;;
15677;SDS011;7939;50.814;6.368;2022-12-15T15:11:44;37.07;;;19.63;;
15677;SDS011;7939;50.814;6.368;2022-12-15T15:14:13;32.93;;;19.00;;
15677;SDS011;7939;50.814;6.368;2022-12-15T15:16:44;39.23;;;21.97;;
15677;SDS011;7939;50.814;6.368;2022-12-15T15:19:23;34.17;;;20.67;;
15677;SDS011;7939;50.814;6.368;2022-12-15T15:21:50;36.77;;;19.63;;
15677;SDS011;7939;50.814;6.368;2022-12-15T15:24:21;35.93;;;20.90;;
15677;SDS011;7939;50.814;6.368;2022-12-15T15:26:50;45.10;;;20.63;;
15677;SDS011;7939;50.814;6.368;2022-12-15T15:29:30;39.97;;;20.73;;
15677;SDS011;7939;50.814;6.368;2022-12-15T15:32:05;37.17;;;21.33;;
15677;SDS011;7939;50.814;6.368;2022-12-15T15:34:39;37.60;;;19.83;;